Inicio METAR Ruta Wind Satelite

Informe Meteorológico

Fecha: 2024/03/03 04:18:08 Local
2024.03.03 09:18 UTC


Operación:VFR
SKVP 030900Z NIL =

SKVP 030300Z 06014KT 9999 FEW020 28/18 Q1014
SKVP 030200Z 06015KT 9999 FEW020 29/18 Q1013
SKVP 030100Z 06013KT 9999 FEW020 30/18 Q1013
SKVP 030000Z 05016KT 9999 FEW020 32/17 Q1012
SKVP 022300Z 05015KT 9999 FEW020 33/17 Q1011